createdAt,value
2019-04-01T00:00:33.763Z,102317.70
2019-04-01T00:01:34.341Z,102316.36
2019-04-01T00:02:35.069Z,102315.87
2019-04-01T00:03:34.858Z,102315.02
2019-04-01T00:04:35.296Z,102314.10
2019-04-01T00:05:35.824Z,102313.58
2019-04-01T00:06:36.946Z,102313.08
2019-04-01T00:07:37.418Z,102312.34
2019-04-01T00:08:38.063Z,102312.41
2019-04-01T00:09:38.826Z,102312.16
2019-04-01T00:10:39.731Z,102311.34
2019-04-01T00:11:40.651Z,102310.58
2019-04-01T00:11:50.655Z,102303.02
2019-04-01T00:12:49.908Z,102303.19
2019-04-01T00:13:50.604Z,102302.85
2019-04-01T00:14:51.471Z,102302.85
2019-04-01T00:15:52.114Z,102302.57
2019-04-01T00:16:52.573Z,102302.50
2019-04-01T00:17:53.118Z,102302.59
2019-04-01T00:19:03.111Z,102302.81
2019-04-01T00:19:54.236Z,102303.33
2019-04-01T00:20:54.818Z,102303.92
2019-04-01T00:21:56.278Z,102304.17
2019-04-01T00:22:56.861Z,102304.25
2019-04-01T00:23:56.752Z,102304.41
2019-04-01T00:24:57.586Z,102304.59
2019-04-01T00:25:57.781Z,102304.58
2019-04-01T00:26:59.331Z,102304.66
2019-04-01T00:27:58.899Z,102304.59
2019-04-01T00:29:00.407Z,102305.17
2019-04-01T00:30:00.611Z,102305.00
2019-04-01T00:31:01.269Z,102305.16
2019-04-01T00:32:01.776Z,102304.72
2019-04-01T00:33:02.198Z,102305.00
2019-04-01T00:34:02.862Z,102305.07
2019-04-01T00:35:03.279Z,102305.67
2019-04-01T00:36:03.757Z,102305.24
2019-04-01T00:37:04.337Z,102305.07
2019-04-01T00:38:04.843Z,102305.05
2019-04-01T00:39:05.402Z,102304.73
2019-04-01T00:40:06.284Z,102304.83
2019-04-01T00:41:06.965Z,102304.65
2019-04-01T00:42:07.461Z,102304.66
2019-04-01T00:43:07.978Z,102304.66
2019-04-01T00:44:07.668Z,102304.42
2019-04-01T00:45:09.283Z,102304.27
2019-04-01T00:46:09.764Z,102304.16
2019-04-01T00:47:10.228Z,102303.86
2019-04-01T00:48:10.705Z,102303.58
2019-04-01T00:49:11.209Z,102303.52
2019-04-01T00:50:11.787Z,102303.10
2019-04-01T00:51:12.326Z,102303.08
2019-04-01T00:52:12.800Z,102302.67
2019-04-01T00:53:13.351Z,102302.69
2019-04-01T00:54:13.881Z,102302.28
2019-04-01T00:55:14.465Z,102302.17
2019-04-01T00:56:15.046Z,102301.62
2019-04-01T00:57:15.650Z,102301.55
2019-04-01T00:58:16.187Z,102301.45
2019-04-01T00:59:16.913Z,102301.27
2019-04-01T01:00:17.539Z,102301.13
2019-04-01T01:01:18.034Z,102301.04
2019-04-01T01:02:18.504Z,102300.41
2019-04-01T01:03:19.167Z,102300.22
2019-04-01T01:04:19.789Z,102299.81
2019-04-01T01:05:20.314Z,102299.46
2019-04-01T01:06:20.808Z,102299.07
2019-04-01T01:06:29.321Z,102293.89
2019-04-01T01:07:30.718Z,102293.72
2019-04-01T01:08:31.316Z,102293.38
2019-04-01T01:09:31.833Z,102293.38
2019-04-01T01:10:32.416Z,102292.83
2019-04-01T01:11:33.231Z,102292.91
2019-04-01T01:12:33.729Z,102293.09
2019-04-01T01:13:34.207Z,102293.25
2019-04-01T01:14:34.744Z,102293.09
2019-04-01T01:15:35.267Z,102292.98
2019-04-01T01:16:35.700Z,102293.07
2019-04-01T01:17:36.184Z,102292.73
2019-04-01T01:18:36.675Z,102292.56
2019-04-01T01:19:37.361Z,102292.64
2019-04-01T01:20:38.080Z,102292.48
2019-04-01T01:21:38.907Z,102292.23
2019-04-01T01:22:39.472Z,102292.47
2019-04-01T01:23:40.322Z,102292.06
2019-04-01T01:24:40.985Z,102292.06
2019-04-01T01:25:41.428Z,102291.92
2019-04-01T01:26:41.845Z,102291.59
2019-04-01T01:27:42.356Z,102291.51
2019-04-01T01:28:42.796Z,102291.77
2019-04-01T01:29:43.368Z,102291.75
2019-04-01T01:30:43.839Z,102291.44
2019-04-01T01:31:44.251Z,102291.18
2019-04-01T01:32:44.797Z,102291.09
2019-04-01T01:33:45.326Z,102290.92
2019-04-01T01:34:45.955Z,102290.84
2019-04-01T01:35:46.457Z,102290.44
2019-04-01T01:36:47.066Z,102290.61
2019-04-01T01:37:47.623Z,102290.19
2019-04-01T01:38:48.073Z,102290.97
2019-04-01T01:39:48.629Z,102290.05
2019-04-01T01:40:49.103Z,102289.72
2019-04-01T01:41:49.529Z,102289.70
2019-04-01T01:42:49.954Z,102289.46
2019-04-01T01:43:50.388Z,102289.22
2019-04-01T01:44:50.972Z,102288.72
2019-04-01T01:45:51.689Z,102288.30
2019-04-01T01:46:52.171Z,102288.20
2019-04-01T01:47:52.674Z,102287.90
2019-04-01T01:48:53.326Z,102286.78
2019-04-01T01:49:53.882Z,102286.63
2019-04-01T01:50:02.408Z,102284.34
2019-04-01T01:51:03.823Z,102284.52
2019-04-01T01:52:04.295Z,102284.26
2019-04-01T01:53:04.750Z,102283.42
2019-04-01T01:54:05.309Z,102283.53
2019-04-01T01:55:04.801Z,102283.86
2019-04-01T01:56:06.312Z,102284.18
2019-04-01T01:57:06.925Z,102283.60
2019-04-01T01:58:07.565Z,102283.52
2019-04-01T01:59:08.109Z,102283.53
2019-04-01T02:00:08.657Z,102283.44
2019-04-01T02:01:09.291Z,102283.17
2019-04-01T02:02:09.851Z,102283.17
2019-04-01T02:03:10.289Z,102282.84
2019-04-01T02:04:10.468Z,102283.34
2019-04-01T02:05:11.072Z,102283.52
2019-04-01T02:06:11.919Z,102283.67
2019-04-01T02:07:12.455Z,102283.92
2019-04-01T02:08:12.961Z,102284.53
2019-04-01T02:09:13.626Z,102284.69
2019-04-01T02:10:14.212Z,102284.69
2019-04-01T02:11:14.715Z,102284.87
2019-04-01T02:12:15.208Z,102284.69
2019-04-01T02:13:15.887Z,102284.77
2019-04-01T02:14:16.329Z,102284.87
2019-04-01T02:15:16.862Z,102284.79
2019-04-01T02:16:17.403Z,102284.77
2019-04-01T02:17:17.936Z,102285.22
2019-04-01T02:18:18.447Z,102285.13
2019-04-01T02:19:19.064Z,102285.61
2019-04-01T02:20:19.652Z,102285.80
2019-04-01T02:21:20.308Z,102285.53
2019-04-01T02:22:21.036Z,102284.88
2019-04-01T02:23:21.110Z,102285.39
2019-04-01T02:24:21.594Z,102285.46
2019-04-01T02:25:22.236Z,102285.46
2019-04-01T02:26:22.721Z,102285.72
2019-04-01T02:27:23.254Z,102285.46
2019-04-01T02:28:23.813Z,102286.13
2019-04-01T02:29:24.278Z,102285.98
2019-04-01T02:30:24.805Z,102286.13
2019-04-01T02:31:25.341Z,102285.70
2019-04-01T02:32:25.831Z,102285.98
2019-04-01T02:33:26.389Z,102285.98
2019-04-01T02:34:26.899Z,102286.70
2019-04-01T02:34:35.452Z,102291.23
2019-04-01T02:35:37.064Z,102290.64
2019-04-01T02:36:37.638Z,102290.47
2019-04-01T02:37:38.223Z,102290.47
2019-04-01T02:38:38.640Z,102290.31
2019-04-01T02:39:39.297Z,102290.08
2019-04-01T02:40:39.809Z,102290.58
2019-04-01T02:41:40.259Z,102290.83
2019-04-01T02:42:40.685Z,102290.64
2019-04-01T02:43:41.070Z,102290.83
2019-04-01T02:44:41.555Z,102290.91
2019-04-01T02:45:42.069Z,102290.47
2019-04-01T02:46:42.728Z,102290.16
2019-04-01T02:47:43.218Z,102289.90
2019-04-01T02:48:43.664Z,102290.51
2019-04-01T02:49:44.129Z,102291.09
2019-04-01T02:50:44.795Z,102290.73
2019-04-01T02:51:44.377Z,102291.18
2019-04-01T02:52:46.267Z,102291.16
2019-04-01T02:53:46.746Z,102291.57
2019-04-01T02:54:47.159Z,102291.75
2019-04-01T02:55:47.747Z,102292.00
2019-04-01T02:56:48.224Z,102292.17
2019-04-01T02:57:48.661Z,102292.34
2019-04-01T02:58:49.142Z,102292.78
2019-04-01T02:59:48.505Z,102293.09
2019-04-01T03:00:50.370Z,102293.00
2019-04-01T03:01:50.883Z,102292.69
2019-04-01T03:02:51.364Z,102292.84
2019-04-01T03:03:52.108Z,102292.59
2019-04-01T03:04:52.640Z,102292.78
2019-04-01T03:05:53.103Z,102292.59
2019-04-01T03:06:53.611Z,102292.02
2019-04-01T03:07:54.110Z,102292.03
2019-04-01T03:08:54.537Z,102291.75
2019-04-01T03:09:54.966Z,102291.94
2019-04-01T03:10:54.467Z,102291.58
2019-04-01T03:11:56.036Z,102291.86
2019-04-01T03:12:56.634Z,102291.67
2019-04-01T03:13:57.137Z,102291.59
2019-04-01T03:14:57.683Z,102291.50
2019-04-01T03:15:58.189Z,102291.28
2019-04-01T03:16:58.686Z,102291.27
2019-04-01T03:17:59.438Z,102290.78
2019-04-01T03:18:59.891Z,102290.33
2019-04-01T03:20:00.630Z,102289.75
2019-04-01T03:20:59.868Z,102289.27
2019-04-01T03:21:08.413Z,102284.09
2019-04-01T03:22:09.796Z,102283.66
2019-04-01T03:23:10.301Z,102283.66
2019-04-01T03:24:10.830Z,102283.41
2019-04-01T03:25:11.272Z,102283.23
2019-04-01T03:26:11.839Z,102283.14
2019-04-01T03:27:16.986Z,102283.25
2019-04-01T03:28:12.028Z,102283.16
2019-04-01T03:29:13.456Z,102283.41
2019-04-01T03:30:14.075Z,102283.58
2019-04-01T03:31:13.803Z,102283.14
2019-04-01T03:32:14.320Z,102283.49
2019-04-01T03:33:14.732Z,102283.67
2019-04-01T03:34:16.377Z,102283.51
2019-04-01T03:35:16.910Z,102283.67
2019-04-01T03:36:16.292Z,102283.73
2019-04-01T03:37:18.025Z,102284.16
2019-04-01T03:38:18.461Z,102283.98
2019-04-01T03:39:18.932Z,102284.32
2019-04-01T03:40:19.606Z,102283.83
2019-04-01T03:41:20.072Z,102283.73
2019-04-01T03:42:20.695Z,102283.25
2019-04-01T03:43:21.335Z,102283.49
2019-04-01T03:44:21.821Z,102283.32
2019-04-01T03:45:22.490Z,102283.58
2019-04-01T03:46:22.999Z,102283.18
2019-04-01T03:47:23.792Z,102282.92
2019-04-01T03:48:23.211Z,102282.49
2019-04-01T03:49:24.939Z,102282.42
2019-04-01T03:50:25.458Z,102282.07
2019-04-01T03:51:25.957Z,102281.92
2019-04-01T03:52:26.693Z,102281.99
2019-04-01T03:53:27.169Z,102281.34
2019-04-01T03:54:27.578Z,102281.25
2019-04-01T03:55:28.205Z,102280.91
2019-04-01T03:56:28.733Z,102280.50
2019-04-01T03:57:29.166Z,102280.58
2019-04-01T03:58:29.576Z,102280.14
2019-04-01T03:59:30.024Z,102280.41
2019-04-01T04:00:30.503Z,102280.06
2019-04-01T04:01:31.081Z,102280.00
2019-04-01T04:02:31.554Z,102279.98
2019-04-01T04:03:32.023Z,102279.72
2019-04-01T04:04:32.541Z,102279.58
2019-04-01T04:05:33.053Z,102278.91
2019-04-01T04:06:32.461Z,102278.47
2019-04-01T04:07:33.897Z,102278.13
2019-04-01T04:08:34.390Z,102277.87
2019-04-01T04:09:34.801Z,102278.48
2019-04-01T04:10:35.242Z,102277.89
2019-04-01T04:10:43.770Z,102277.16
2019-04-01T04:11:45.507Z,102276.91
2019-04-01T04:12:46.024Z,102276.50
2019-04-01T04:13:46.254Z,102276.25
2019-04-01T04:14:50.890Z,102276.41
2019-04-01T04:15:46.520Z,102276.67
2019-04-01T04:16:48.106Z,102276.67
2019-04-01T04:17:48.604Z,102275.83
2019-04-01T04:18:49.143Z,102275.41
2019-04-01T04:19:48.691Z,102274.31
2019-04-01T04:20:50.174Z,102274.00
2019-04-01T04:21:50.674Z,102273.82
2019-04-01T04:22:51.199Z,102273.34
2019-04-01T04:23:51.673Z,102273.75
2019-04-01T04:24:52.335Z,102273.23
2019-04-01T04:25:51.861Z,102273.59
2019-04-01T04:26:53.363Z,102273.68
2019-04-01T04:27:53.898Z,102273.68
2019-04-01T04:28:54.396Z,102274.02
2019-04-01T04:29:54.870Z,102274.34
2019-04-01T04:30:55.332Z,102274.34
2019-04-01T04:31:55.776Z,102274.34
2019-04-01T04:32:56.272Z,102274.91
2019-04-01T04:33:56.885Z,102275.34
2019-04-01T04:34:57.683Z,102275.17
2019-04-01T04:35:56.999Z,102275.50
2019-04-01T04:36:58.512Z,102275.94
2019-04-01T04:37:59.032Z,102275.67
2019-04-01T04:38:59.524Z,102275.58
2019-04-01T04:39:59.955Z,102276.17
2019-04-01T04:41:00.499Z,102276.51
2019-04-01T04:42:00.934Z,102276.94
2019-04-01T04:43:01.608Z,102277.59
2019-04-01T04:44:02.149Z,102277.93
2019-04-01T04:45:02.605Z,102278.59
2019-04-01T04:46:03.524Z,102278.86
2019-04-01T04:47:02.858Z,102279.36
2019-04-01T04:48:03.328Z,102279.36
2019-04-01T04:49:04.739Z,102280.28
2019-04-01T04:50:05.380Z,102281.03
2019-04-01T04:51:05.842Z,102281.13
2019-04-01T04:52:06.282Z,102281.95
2019-04-01T04:53:06.840Z,102282.38
2019-04-01T04:54:07.500Z,102282.28
2019-04-01T04:55:08.124Z,102282.45
2019-04-01T04:56:08.791Z,102282.71
2019-04-01T04:57:09.318Z,102283.38
2019-04-01T04:58:09.856Z,102282.87
2019-04-01T04:59:10.319Z,102283.35
2019-04-01T04:59:18.885Z,102289.38
2019-04-01T05:00:20.302Z,102289.28
2019-04-01T05:01:20.878Z,102289.45
2019-04-01T05:02:24.442Z,102289.20
2019-04-01T05:03:20.981Z,102289.28
2019-04-01T05:04:22.527Z,102289.78
2019-04-01T05:05:23.035Z,102289.72
2019-04-01T05:06:23.613Z,102289.62
2019-04-01T05:07:24.073Z,102290.46
2019-04-01T05:08:24.783Z,102290.70
2019-04-01T05:09:25.367Z,102291.05
2019-04-01T05:10:25.843Z,102291.63
2019-04-01T05:11:26.426Z,102291.70
2019-04-01T05:12:25.937Z,102291.95
2019-04-01T05:13:27.561Z,102292.43
2019-04-01T05:14:28.028Z,102293.27
2019-04-01T05:15:28.534Z,102293.94
2019-04-01T05:16:28.998Z,102294.89
2019-04-01T05:17:29.428Z,102294.89
2019-04-01T05:18:30.099Z,102295.98
2019-04-01T05:19:30.512Z,102296.48
2019-04-01T05:20:31.066Z,102297.30
2019-04-01T05:21:31.640Z,102298.30
2019-04-01T05:22:32.115Z,102298.75
2019-04-01T05:23:32.580Z,102299.36
2019-04-01T05:24:33.022Z,102299.19
2019-04-01T05:25:33.845Z,102299.69
2019-04-01T05:26:34.420Z,102300.03
2019-04-01T05:27:35.108Z,102300.19
2019-04-01T05:28:35.591Z,102300.61
2019-04-01T05:29:36.047Z,102301.05
2019-04-01T05:30:36.735Z,102301.53
2019-04-01T05:31:37.251Z,102302.03
2019-04-01T05:32:37.795Z,102302.44
2019-04-01T05:33:38.365Z,102302.38
2019-04-01T05:34:39.131Z,102302.94
2019-04-01T05:35:39.634Z,102302.88
2019-04-01T05:36:40.155Z,102303.54
2019-04-01T05:37:40.811Z,102303.97
2019-04-01T05:38:41.530Z,102304.30
2019-04-01T05:39:42.096Z,102305.06
2019-04-01T05:40:42.622Z,102305.13
2019-04-01T05:41:43.119Z,102305.64
2019-04-01T05:42:43.561Z,102306.04
2019-04-01T05:43:43.069Z,102306.30
2019-04-01T05:44:43.601Z,102306.48
2019-04-01T05:45:45.094Z,102307.14
2019-04-01T05:45:53.682Z,102313.17
2019-04-01T05:46:55.086Z,102312.58
2019-04-01T05:47:55.594Z,102312.81
2019-04-01T05:48:56.073Z,102312.91
2019-04-01T05:49:56.779Z,102313.14
2019-04-01T05:50:57.234Z,102313.16
2019-04-01T05:51:57.735Z,102313.23
2019-04-01T05:52:58.148Z,102313.05
2019-04-01T05:53:58.600Z,102313.55
2019-04-01T05:54:59.061Z,102313.55
2019-04-01T05:55:59.878Z,102313.55
2019-04-01T05:57:00.329Z,102313.64
2019-04-01T05:58:00.747Z,102313.55
2019-04-01T05:59:01.453Z,102313.88
2019-04-01T06:00:01.979Z,102313.81
2019-04-01T06:01:02.478Z,102314.39
2019-04-01T06:02:02.928Z,102314.58
2019-04-01T06:03:03.563Z,102314.98
2019-04-01T06:04:04.355Z,102315.18
2019-04-01T06:05:04.947Z,102315.83
2019-04-01T06:06:05.321Z,102315.91
2019-04-01T06:07:05.862Z,102315.25
2019-04-01T06:08:06.330Z,102315.77
2019-04-01T06:09:06.999Z,102315.67
2019-04-01T06:10:06.692Z,102315.25
2019-04-01T06:11:08.608Z,102315.59
2019-04-01T06:12:09.120Z,102316.28
2019-04-01T06:13:09.573Z,102316.12
2019-04-01T06:14:10.109Z,102315.70
2019-04-01T06:15:10.591Z,102315.70
2019-04-01T06:16:11.204Z,102315.43
2019-04-01T06:17:10.599Z,102315.12
2019-04-01T06:18:12.169Z,102315.44
2019-04-01T06:19:12.815Z,102315.63
2019-04-01T06:20:13.296Z,102315.78
2019-04-01T06:21:13.917Z,102315.38
2019-04-01T06:22:14.469Z,102316.06
2019-04-01T06:23:15.037Z,102316.03
2019-04-01T06:24:15.681Z,102316.06
2019-04-01T06:25:16.078Z,102315.38
2019-04-01T06:26:16.502Z,102314.87
2019-04-01T06:27:17.012Z,102314.98
2019-04-01T06:28:17.835Z,102314.89
2019-04-01T06:29:18.264Z,102315.22
2019-04-01T06:30:18.708Z,102315.65
2019-04-01T06:31:19.196Z,102315.14
2019-04-01T06:32:19.684Z,102315.14
2019-04-01T06:32:28.216Z,102317.08
2019-04-01T06:33:29.622Z,102316.69
2019-04-01T06:34:30.115Z,102316.25
2019-04-01T06:35:30.593Z,102316.01
2019-04-01T06:36:31.118Z,102315.66
2019-04-01T06:37:31.611Z,102315.43
2019-04-01T06:38:32.138Z,102315.41
2019-04-01T06:39:32.814Z,102314.83
2019-04-01T06:40:33.465Z,102314.57
2019-04-01T06:41:34.230Z,102313.73
2019-04-01T06:42:34.700Z,102313.55
2019-04-01T06:43:35.380Z,102313.05
2019-04-01T06:44:35.923Z,102312.53
2019-04-01T06:45:36.360Z,102311.57
2019-04-01T06:46:36.928Z,102310.86
2019-04-01T06:47:37.378Z,102310.55
2019-04-01T06:48:37.865Z,102309.48
2019-04-01T06:49:38.416Z,102308.72
2019-04-01T06:50:39.243Z,102308.05
2019-04-01T06:51:39.688Z,102307.58
2019-04-01T06:52:40.248Z,102306.84
2019-04-01T06:53:40.672Z,102305.98
2019-04-01T06:54:41.354Z,102304.70
2019-04-01T06:55:41.779Z,102304.22
2019-04-01T06:56:42.259Z,102303.29
2019-04-01T06:57:42.859Z,102303.02
2019-04-01T06:58:43.439Z,102302.08
2019-04-01T06:59:44.096Z,102301.31
2019-04-01T07:00:44.704Z,102301.00
2019-04-01T07:01:45.284Z,102300.14
2019-04-01T07:02:45.858Z,102299.66
2019-04-01T07:03:46.325Z,102299.08
2019-04-01T07:04:46.918Z,102298.25
2019-04-01T07:05:47.358Z,102297.95
2019-04-01T07:06:47.922Z,102297.85
2019-04-01T07:07:48.441Z,102297.14
2019-04-01T07:08:48.997Z,102296.89
2019-04-01T07:09:50.652Z,102296.05
2019-04-01T07:10:48.885Z,102295.85
2019-04-01T07:11:50.359Z,102295.09
2019-04-01T07:12:50.878Z,102294.37
2019-04-01T07:13:51.333Z,102293.47
2019-04-01T07:14:52.020Z,102292.51
2019-04-01T07:15:52.446Z,102291.77
2019-04-01T07:16:52.861Z,102290.72
2019-04-01T07:17:53.295Z,102289.69
2019-04-01T07:18:01.842Z,102278.17
2019-04-01T07:19:03.219Z,102278.00
2019-04-01T07:20:03.466Z,102277.88
2019-04-01T07:21:04.165Z,102277.03
2019-04-01T07:22:04.708Z,102276.14
2019-04-01T07:23:05.265Z,102275.97
2019-04-01T07:24:05.765Z,102275.59
2019-04-01T07:25:06.240Z,102274.95
2019-04-01T07:26:06.656Z,102274.53
2019-04-01T07:27:08.297Z,102274.02
2019-04-01T07:28:06.733Z,102273.89
2019-04-01T07:29:08.326Z,102272.99
2019-04-01T07:30:07.959Z,102272.52
2019-04-01T07:31:09.418Z,102272.05
2019-04-01T07:32:09.908Z,102271.44
2019-04-01T07:33:10.511Z,102270.59
2019-04-01T07:34:10.971Z,102270.86
2019-04-01T07:35:11.533Z,102270.25
2019-04-01T07:36:12.023Z,102270.02
2019-04-01T07:37:12.601Z,102269.34
2019-04-01T07:38:13.158Z,102269.10
2019-04-01T07:39:13.651Z,102268.64
2019-04-01T07:40:14.276Z,102267.83
2019-04-01T07:41:13.756Z,102266.81
2019-04-01T07:42:15.199Z,102266.03
2019-04-01T07:43:15.766Z,102265.34
2019-04-01T07:44:16.386Z,102265.13
2019-04-01T07:45:17.015Z,102264.77
2019-04-01T07:46:17.502Z,102264.02
2019-04-01T07:47:18.024Z,102263.28
2019-04-01T07:48:18.598Z,102262.95
2019-04-01T07:49:19.104Z,102262.67
2019-04-01T07:50:19.508Z,102262.39
2019-04-01T07:51:19.924Z,102262.12
2019-04-01T07:52:20.449Z,102261.94
2019-04-01T07:53:21.023Z,102261.09
2019-04-01T07:54:21.905Z,102260.80
2019-04-01T07:55:22.423Z,102260.56
2019-04-01T07:56:22.923Z,102259.91
2019-04-01T07:57:23.417Z,102259.42
2019-04-01T07:58:23.973Z,102258.88
2019-04-01T07:59:24.603Z,102258.27
2019-04-01T08:00:25.510Z,102257.48
2019-04-01T08:01:25.900Z,102256.44
2019-04-01T08:01:34.429Z,102250.88
2019-04-01T08:02:35.853Z,102250.03
2019-04-01T08:03:36.513Z,102250.09
2019-04-01T08:04:36.958Z,102250.06
2019-04-01T08:05:37.540Z,102249.69
2019-04-01T08:06:38.189Z,102249.12
2019-04-01T08:07:38.872Z,102248.55
2019-04-01T08:08:39.460Z,102248.52
2019-04-01T08:09:40.020Z,102248.01
2019-04-01T08:10:40.724Z,102247.82
2019-04-01T08:11:41.495Z,102247.31
2019-04-01T08:12:42.005Z,102247.28
2019-04-01T08:13:42.536Z,102246.83
2019-04-01T08:14:43.255Z,102246.80
2019-04-01T08:15:43.762Z,102246.20
2019-04-01T08:16:44.704Z,102245.66
2019-04-01T08:17:45.272Z,102244.88
2019-04-01T08:18:46.152Z,102243.82
2019-04-01T08:19:46.601Z,102243.05
2019-04-01T08:20:47.173Z,102242.64
2019-04-01T08:21:47.920Z,102241.67
2019-04-01T08:22:48.582Z,102241.27
2019-04-01T08:23:49.071Z,102240.39
2019-04-01T08:24:49.523Z,102239.39
2019-04-01T08:25:50.003Z,102239.38
2019-04-01T08:26:50.807Z,102238.89
2019-04-01T08:27:51.566Z,102238.20
2019-04-01T08:28:52.021Z,102237.25
2019-04-01T08:29:52.500Z,102236.56
2019-04-01T08:30:53.043Z,102236.39
2019-04-01T08:31:53.619Z,102235.59
2019-04-01T08:32:54.267Z,102235.52
2019-04-01T08:33:53.803Z,102235.33
2019-04-01T08:34:55.434Z,102234.66
2019-04-01T08:35:55.925Z,102234.17
2019-04-01T08:36:56.626Z,102234.09
2019-04-01T08:37:58.753Z,102234.04
2019-04-01T08:38:57.297Z,102233.26
2019-04-01T08:39:57.438Z,102233.01
2019-04-01T08:40:58.896Z,102233.31
2019-04-01T08:41:58.512Z,102233.27
2019-04-01T08:43:00.048Z,102233.31
2019-04-01T08:44:03.243Z,102233.08
2019-04-01T08:45:00.343Z,102232.81
2019-04-01T08:46:00.524Z,102232.84
2019-04-01T08:47:00.470Z,102232.73
2019-04-01T08:48:00.883Z,102232.14
2019-04-01T08:49:02.609Z,102231.91
2019-04-01T08:50:03.123Z,102232.32
2019-04-01T08:51:03.616Z,102231.65
2019-04-01T08:52:04.194Z,102231.86
2019-04-01T08:52:12.724Z,102226.30
2019-04-01T08:53:14.109Z,102226.22
2019-04-01T08:54:14.760Z,102226.23
2019-04-01T08:55:15.240Z,102226.30
2019-04-01T08:56:15.806Z,102225.98
2019-04-01T08:57:16.276Z,102225.72
2019-04-01T08:58:16.914Z,102225.20
2019-04-01T08:59:17.496Z,102225.00
2019-04-01T09:00:18.085Z,102224.66
2019-04-01T09:01:18.638Z,102224.55
2019-04-01T09:02:19.308Z,102223.64
2019-04-01T09:03:19.751Z,102223.34
2019-04-01T09:04:20.348Z,102223.27
2019-04-01T09:05:20.929Z,102222.44
2019-04-01T09:06:21.458Z,102222.16
2019-04-01T09:07:21.911Z,102221.84
2019-04-01T09:08:22.417Z,102221.69
2019-04-01T09:09:23.015Z,102221.59
2019-04-01T09:10:23.880Z,102221.52
2019-04-01T09:11:24.320Z,102221.23
2019-04-01T09:12:24.833Z,102220.81
2019-04-01T09:13:25.295Z,102220.05
2019-04-01T09:14:25.743Z,102219.27
2019-04-01T09:15:26.336Z,102218.62
2019-04-01T09:16:27.039Z,102217.56
2019-04-01T09:17:27.679Z,102216.63
2019-04-01T09:18:28.375Z,102215.95
2019-04-01T09:19:27.829Z,102215.36
2019-04-01T09:20:29.310Z,102214.45
2019-04-01T09:21:29.887Z,102213.77
2019-04-01T09:22:30.384Z,102213.02
2019-04-01T09:23:31.301Z,102211.85
2019-04-01T09:24:31.714Z,102211.12
2019-04-01T09:25:32.211Z,102211.38
2019-04-01T09:26:32.713Z,102210.84
2019-04-01T09:27:33.242Z,102209.81
2019-04-01T09:28:33.745Z,102208.73
2019-04-01T09:29:34.238Z,102207.66
2019-04-01T09:30:34.762Z,102207.34
2019-04-01T09:31:35.244Z,102206.22
2019-04-01T09:32:35.797Z,102205.39
2019-04-01T09:33:36.312Z,102205.03
2019-04-01T09:34:35.910Z,102204.75
2019-04-01T09:34:44.474Z,102198.61
2019-04-01T09:35:46.217Z,102198.11
2019-04-01T09:36:46.943Z,102198.11
2019-04-01T09:37:47.544Z,102197.46
2019-04-01T09:38:48.363Z,102197.68
2019-04-01T09:39:49.088Z,102197.54
2019-04-01T09:40:49.719Z,102197.07
2019-04-01T09:41:50.192Z,102196.22
2019-04-01T09:42:50.201Z,102195.70
2019-04-01T09:43:50.662Z,102195.74
2019-04-01T09:44:51.323Z,102194.90
2019-04-01T09:45:51.771Z,102194.46
2019-04-01T09:46:52.437Z,102193.61
2019-04-01T09:47:52.920Z,102192.96
2019-04-01T09:48:52.634Z,102191.47
2019-04-01T09:49:54.078Z,102190.58
2019-04-01T09:50:54.541Z,102189.64
2019-04-01T09:51:55.175Z,102189.12
2019-04-01T09:52:55.782Z,102188.13
2019-04-01T09:53:56.278Z,102187.19
2019-04-01T09:54:56.720Z,102186.30
2019-04-01T09:55:57.117Z,102185.14
2019-04-01T09:56:57.981Z,102184.12
2019-04-01T09:57:58.527Z,102183.44
2019-04-01T09:58:59.238Z,102183.09
2019-04-01T09:59:59.653Z,102181.78
2019-04-01T10:01:00.135Z,102181.36
2019-04-01T10:02:00.652Z,102180.38
2019-04-01T10:03:01.155Z,102179.72
2019-04-01T10:04:01.729Z,102178.41
2019-04-01T10:05:01.228Z,102177.47
2019-04-01T10:06:02.829Z,102176.45
2019-04-01T10:07:03.602Z,102175.72
2019-04-01T10:08:04.136Z,102174.98
2019-04-01T10:09:03.610Z,102173.84
2019-04-01T10:10:05.252Z,102172.73
2019-04-01T10:11:05.812Z,102171.68
2019-04-01T10:12:06.340Z,102170.28
2019-04-01T10:13:06.879Z,102168.87
2019-04-01T10:14:07.544Z,102167.73
2019-04-01T10:15:08.418Z,102166.53
2019-04-01T10:16:09.021Z,102164.91
2019-04-01T10:17:08.658Z,102163.90
2019-04-01T10:18:10.199Z,102162.06
2019-04-01T10:19:10.771Z,102161.17
2019-04-01T10:20:11.360Z,102159.90
2019-04-01T10:21:11.903Z,102158.41
2019-04-01T10:22:12.600Z,102157.12
2019-04-01T10:22:21.132Z,102138.77
2019-04-01T10:23:22.956Z,102138.59
2019-04-01T10:24:23.560Z,102138.08
2019-04-01T10:25:24.300Z,102137.45
2019-04-01T10:26:25.115Z,102136.86
2019-04-01T10:27:25.691Z,102136.66
2019-04-01T10:28:26.271Z,102136.33
2019-04-01T10:29:26.753Z,102135.78
2019-04-01T10:30:27.213Z,102135.92
2019-04-01T10:31:27.734Z,102135.00
2019-04-01T10:32:28.188Z,102134.32
2019-04-01T10:33:28.631Z,102133.77
2019-04-01T10:34:28.706Z,102132.75
2019-04-01T10:35:29.230Z,102132.22
2019-04-01T10:36:29.746Z,102131.70
2019-04-01T10:37:30.053Z,102131.00
2019-04-01T10:38:30.641Z,102130.14
2019-04-01T10:39:31.130Z,102128.75
2019-04-01T10:40:31.589Z,102127.73
2019-04-01T10:41:32.118Z,102126.56
2019-04-01T10:42:32.687Z,102125.84
2019-04-01T10:43:34.367Z,102125.11
2019-04-01T10:44:34.159Z,102124.19
2019-04-01T10:45:34.303Z,102122.95
2019-04-01T10:46:35.021Z,102121.73
2019-04-01T10:47:35.591Z,102120.45
2019-04-01T10:48:36.275Z,102119.31
2019-04-01T10:49:35.808Z,102117.91
2019-04-01T10:50:36.265Z,102116.05
2019-04-01T10:51:36.771Z,102114.42
2019-04-01T10:52:38.417Z,102113.37
2019-04-01T10:53:37.835Z,102112.16
2019-04-01T10:54:38.511Z,102110.52
2019-04-01T10:55:39.160Z,102109.02
2019-04-01T10:56:39.262Z,102107.66
2019-04-01T10:57:43.308Z,102106.38
2019-04-01T10:58:40.487Z,102104.84
2019-04-01T10:59:40.926Z,102103.77
2019-04-01T11:00:42.395Z,102102.11
2019-04-01T11:01:42.310Z,102100.89
2019-04-01T11:02:42.401Z,102099.64
2019-04-01T11:03:42.935Z,102098.63
2019-04-01T11:04:43.526Z,102096.83
2019-04-01T11:05:44.026Z,102095.27
2019-04-01T11:06:44.600Z,102094.11
2019-04-01T11:07:45.115Z,102092.44
2019-04-01T11:08:45.646Z,102090.52
2019-04-01T11:09:45.646Z,102089.20
2019-04-01T11:10:47.157Z,102087.53
2019-04-01T11:11:47.775Z,102085.70
2019-04-01T11:12:48.178Z,102084.20
2019-04-01T11:13:51.590Z,102082.28
2019-04-01T11:14:48.237Z,102081.64
2019-04-01T11:15:49.929Z,102079.59
2019-04-01T11:16:48.916Z,102078.19
2019-04-01T11:17:52.461Z,102076.90
2019-04-01T11:18:50.237Z,102075.06